sensor_id;sensor_type;location;lat;lon;timestamp;pressure;altitude;pressure_sealevel;temperature;humidity
46876;BME280;32866;50.160;14.768;2022-08-19T00:00:06;98569.56;;;20.66;97.58
46876;BME280;32866;50.160;14.768;2022-08-19T00:02:33;98553.22;;;20.56;97.52
46876;BME280;32866;50.160;14.768;2022-08-19T00:04:59;98549.25;;;20.33;98.49
46876;BME280;32866;50.160;14.768;2022-08-19T00:07:24;98552.38;;;20.24;99.56
46876;BME280;32866;50.160;14.768;2022-08-19T00:09:50;98576.00;;;20.36;100.00
46876;BME280;32866;50.160;14.768;2022-08-19T00:12:15;98571.06;;;20.04;100.00
46876;BME280;32866;50.160;14.768;2022-08-19T00:14:40;98556.31;;;19.90;100.00
46876;BME280;32866;50.160;14.768;2022-08-19T00:17:07;98577.84;;;20.09;100.00
46876;BME280;32866;50.160;14.768;2022-08-19T00:19:34;98582.25;;;19.98;100.00
46876;BME280;32866;50.160;14.768;2022-08-19T00:22:00;98578.56;;;19.90;100.00
46876;BME280;32866;50.160;14.768;2022-08-19T00:24:25;98572.06;;;19.82;100.00
46876;BME280;32866;50.160;14.768;2022-08-19T00:26:51;98587.47;;;19.83;100.00
46876;BME280;32866;50.160;14.768;2022-08-19T00:29:19;98577.41;;;19.80;100.00
46876;BME280;32866;50.160;14.768;2022-08-19T00:31:45;98557.94;;;19.80;100.00
46876;BME280;32866;50.160;14.768;2022-08-19T00:34:12;98546.09;;;19.74;100.00
46876;BME280;32866;50.160;14.768;2022-08-19T00:36:38;98553.91;;;19.81;100.00
46876;BME280;32866;50.160;14.768;2022-08-19T00:39:04;98551.94;;;19.70;100.00
46876;BME280;32866;50.160;14.768;2022-08-19T00:41:30;98543.69;;;19.64;100.00
46876;BME280;32866;50.160;14.768;2022-08-19T00:43:56;98544.06;;;19.50;100.00
46876;BME280;32866;50.160;14.768;2022-08-19T00:46:22;98520.72;;;19.34;100.00
46876;BME280;32866;50.160;14.768;2022-08-19T00:48:47;98549.16;;;19.76;100.00
46876;BME280;32866;50.160;14.768;2022-08-19T00:51:12;98530.56;;;19.35;100.00
46876;BME280;32866;50.160;14.768;2022-08-19T00:53:37;98560.81;;;19.44;100.00
46876;BME280;32866;50.160;14.768;2022-08-19T00:56:04;98562.97;;;19.26;100.00
46876;BME280;32866;50.160;14.768;2022-08-19T00:58:34;98550.59;;;19.27;100.00
46876;BME280;32866;50.160;14.768;2022-08-19T01:01:01;98557.09;;;19.36;100.00
46876;BME280;32866;50.160;14.768;2022-08-19T01:03:27;98565.06;;;19.45;100.00
46876;BME280;32866;50.160;14.768;2022-08-19T01:05:53;98573.09;;;19.54;100.00
46876;BME280;32866;50.160;14.768;2022-08-19T01:08:19;98567.41;;;19.41;100.00
46876;BME280;32866;50.160;14.768;2022-08-19T01:10:49;98568.38;;;19.43;100.00
46876;BME280;32866;50.160;14.768;2022-08-19T01:13:17;98560.41;;;19.28;100.00
46876;BME280;32866;50.160;14.768;2022-08-19T01:15:47;98569.13;;;19.14;100.00
46876;BME280;32866;50.160;14.768;2022-08-19T01:18:15;98546.25;;;19.02;100.00
46876;BME280;32866;50.160;14.768;2022-08-19T01:20:42;98546.59;;;18.87;100.00
46876;BME280;32866;50.160;14.768;2022-08-19T01:23:08;98583.06;;;19.08;100.00
46876;BME280;32866;50.160;14.768;2022-08-19T01:25:51;98575.97;;;19.07;100.00
46876;BME280;32866;50.160;14.768;2022-08-19T01:28:24;98565.81;;;19.15;100.00
46876;BME280;32866;50.160;14.768;2022-08-19T01:30:53;98562.53;;;18.75;100.00
46876;BME280;32866;50.160;14.768;2022-08-19T01:33:19;98590.13;;;19.03;100.00
46876;BME280;32866;50.160;14.768;2022-08-19T01:35:45;98584.56;;;19.09;100.00
46876;BME280;32866;50.160;14.768;2022-08-19T01:38:23;98545.63;;;18.79;100.00
46876;BME280;32866;50.160;14.768;2022-08-19T01:40:49;98551.72;;;18.71;100.00
46876;BME280;32866;50.160;14.768;2022-08-19T01:43:14;98576.19;;;18.73;100.00
46876;BME280;32866;50.160;14.768;2022-08-19T01:45:40;98579.66;;;18.85;100.00
46876;BME280;32866;50.160;14.768;2022-08-19T01:48:06;98580.13;;;18.95;100.00
46876;BME280;32866;50.160;14.768;2022-08-19T01:50:33;98587.66;;;19.00;100.00
46876;BME280;32866;50.160;14.768;2022-08-19T01:53:00;98606.78;;;19.03;100.00
46876;BME280;32866;50.160;14.768;2022-08-19T01:55:26;98609.09;;;18.99;100.00
46876;BME280;32866;50.160;14.768;2022-08-19T01:57:52;98623.91;;;19.13;100.00
46876;BME280;32866;50.160;14.768;2022-08-19T02:00:21;98626.19;;;19.45;100.00
46876;BME280;32866;50.160;14.768;2022-08-19T02:02:47;98595.91;;;19.11;100.00
46876;BME280;32866;50.160;14.768;2022-08-19T02:05:12;98616.28;;;19.19;100.00
46876;BME280;32866;50.160;14.768;2022-08-19T02:07:40;98618.41;;;19.02;100.00
46876;BME280;32866;50.160;14.768;2022-08-19T02:10:13;98619.47;;;18.93;100.00
46876;BME280;32866;50.160;14.768;2022-08-19T02:12:39;98619.75;;;18.89;100.00
46876;BME280;32866;50.160;14.768;2022-08-19T02:15:04;98631.28;;;19.05;100.00
46876;BME280;32866;50.160;14.768;2022-08-19T02:17:31;98639.13;;;19.01;100.00
46876;BME280;32866;50.160;14.768;2022-08-19T02:19:57;98617.25;;;18.80;100.00
46876;BME280;32866;50.160;14.768;2022-08-19T02:22:23;98629.56;;;18.96;100.00
46876;BME280;32866;50.160;14.768;2022-08-19T02:24:51;98620.78;;;18.92;100.00
46876;BME280;32866;50.160;14.768;2022-08-19T02:27:16;98634.28;;;19.07;100.00
46876;BME280;32866;50.160;14.768;2022-08-19T02:29:41;98618.25;;;18.88;100.00
46876;BME280;32866;50.160;14.768;2022-08-19T02:32:07;98649.69;;;19.08;100.00
46876;BME280;32866;50.160;14.768;2022-08-19T02:34:32;98645.81;;;19.17;100.00
46876;BME280;32866;50.160;14.768;2022-08-19T02:36:58;98641.00;;;19.23;100.00
46876;BME280;32866;50.160;14.768;2022-08-19T02:39:23;98637.88;;;19.38;100.00
46876;BME280;32866;50.160;14.768;2022-08-19T02:41:48;98627.06;;;19.28;100.00
46876;BME280;32866;50.160;14.768;2022-08-19T02:44:15;98641.66;;;19.35;100.00
46876;BME280;32866;50.160;14.768;2022-08-19T02:46:40;98643.41;;;19.38;100.00
46876;BME280;32866;50.160;14.768;2022-08-19T02:49:07;98624.97;;;19.04;100.00
46876;BME280;32866;50.160;14.768;2022-08-19T02:51:38;98643.34;;;19.13;100.00
46876;BME280;32866;50.160;14.768;2022-08-19T02:54:05;98644.25;;;19.27;100.00
46876;BME280;32866;50.160;14.768;2022-08-19T02:56:33;98642.13;;;19.39;100.00
46876;BME280;32866;50.160;14.768;2022-08-19T02:58:59;98645.16;;;19.41;100.00
46876;BME280;32866;50.160;14.768;2022-08-19T03:01:29;98643.72;;;19.64;100.00
46876;BME280;32866;50.160;14.768;2022-08-19T03:03:58;98621.00;;;19.30;100.00
46876;BME280;32866;50.160;14.768;2022-08-19T03:06:25;98658.41;;;19.90;100.00
46876;BME280;32866;50.160;14.768;2022-08-19T03:08:52;98635.53;;;19.78;100.00
46876;BME280;32866;50.160;14.768;2022-08-19T03:11:21;98654.31;;;19.96;100.00
46876;BME280;32866;50.160;14.768;2022-08-19T03:13:47;98649.44;;;20.02;100.00
46876;BME280;32866;50.160;14.768;2022-08-19T03:16:14;98646.50;;;19.95;100.00
46876;BME280;32866;50.160;14.768;2022-08-19T03:18:39;98644.22;;;19.93;100.00
46876;BME280;32866;50.160;14.768;2022-08-19T03:21:06;98651.44;;;20.08;100.00
46876;BME280;32866;50.160;14.768;2022-08-19T03:23:31;98655.47;;;20.07;100.00
46876;BME280;32866;50.160;14.768;2022-08-19T03:25:56;98652.47;;;20.05;100.00
46876;BME280;32866;50.160;14.768;2022-08-19T03:28:22;98660.81;;;20.05;100.00
46876;BME280;32866;50.160;14.768;2022-08-19T03:31:07;98650.00;;;19.95;100.00
46876;BME280;32866;50.160;14.768;2022-08-19T03:33:34;98656.28;;;20.01;100.00
46876;BME280;32866;50.160;14.768;2022-08-19T03:36:08;98658.06;;;19.99;100.00
46876;BME280;32866;50.160;14.768;2022-08-19T03:38:36;98652.34;;;19.91;100.00
46876;BME280;32866;50.160;14.768;2022-08-19T03:41:06;98655.34;;;19.93;100.00
46876;BME280;32866;50.160;14.768;2022-08-19T03:43:35;98660.38;;;19.95;100.00
46876;BME280;32866;50.160;14.768;2022-08-19T03:46:02;98657.69;;;19.89;100.00
46876;BME280;32866;50.160;14.768;2022-08-19T03:48:29;98650.47;;;19.75;100.00
46876;BME280;32866;50.160;14.768;2022-08-19T03:50:55;98659.25;;;19.79;100.00
46876;BME280;32866;50.160;14.768;2022-08-19T03:53:24;98660.09;;;19.68;100.00
46876;BME280;32866;50.160;14.768;2022-08-19T03:55:50;98648.75;;;19.30;100.00
46876;BME280;32866;50.160;14.768;2022-08-19T03:58:16;98667.41;;;19.35;100.00
46876;BME280;32866;50.160;14.768;2022-08-19T04:00:42;98639.13;;;19.01;100.00
46876;BME280;32866;50.160;14.768;2022-08-19T04:03:08;98663.25;;;19.17;100.00
46876;BME280;32866;50.160;14.768;2022-08-19T04:05:33;98662.75;;;19.13;100.00
46876;BME280;32866;50.160;14.768;2022-08-19T04:07:58;98618.53;;;18.79;100.00
46876;BME280;32866;50.160;14.768;2022-08-19T04:10:24;98653.97;;;19.09;100.00
46876;BME280;32866;50.160;14.768;2022-08-19T04:12:49;98624.53;;;18.95;100.00
46876;BME280;32866;50.160;14.768;2022-08-19T04:15:14;98652.22;;;19.06;100.00
46876;BME280;32866;50.160;14.768;2022-08-19T04:17:40;98657.22;;;19.13;100.00
46876;BME280;32866;50.160;14.768;2022-08-19T04:20:06;98633.91;;;18.80;100.00
46876;BME280;32866;50.160;14.768;2022-08-19T04:22:31;98668.97;;;18.83;100.00
46876;BME280;32866;50.160;14.768;2022-08-19T04:24:56;98631.72;;;18.62;100.00
46876;BME280;32866;50.160;14.768;2022-08-19T04:27:22;98651.88;;;18.68;100.00
46876;BME280;32866;50.160;14.768;2022-08-19T04:29:47;98667.47;;;18.82;100.00
46876;BME280;32866;50.160;14.768;2022-08-19T04:32:13;98685.13;;;18.90;100.00
46876;BME280;32866;50.160;14.768;2022-08-19T04:34:40;98688.34;;;18.95;100.00
46876;BME280;32866;50.160;14.768;2022-08-19T04:37:08;98693.63;;;19.04;100.00
46876;BME280;32866;50.160;14.768;2022-08-19T04:39:42;98701.44;;;19.05;100.00
46876;BME280;32866;50.160;14.768;2022-08-19T04:42:26;98667.91;;;18.98;100.00
46876;BME280;32866;50.160;14.768;2022-08-19T04:45:11;98700.06;;;19.23;100.00
46876;BME280;32866;50.160;14.768;2022-08-19T04:47:40;98705.41;;;19.16;100.00
46876;BME280;32866;50.160;14.768;2022-08-19T04:50:06;98723.91;;;19.49;100.00
46876;BME280;32866;50.160;14.768;2022-08-19T04:52:33;98700.16;;;19.48;100.00
46876;BME280;32866;50.160;14.768;2022-08-19T04:54:58;98720.69;;;19.75;100.00
46876;BME280;32866;50.160;14.768;2022-08-19T04:57:23;98690.38;;;19.72;100.00
46876;BME280;32866;50.160;14.768;2022-08-19T04:59:49;98725.22;;;20.09;100.00
46876;BME280;32866;50.160;14.768;2022-08-19T05:02:18;98729.50;;;20.10;100.00
46876;BME280;32866;50.160;14.768;2022-08-19T05:04:43;98732.75;;;20.14;100.00
46876;BME280;32866;50.160;14.768;2022-08-19T05:07:09;98729.69;;;20.17;100.00
46876;BME280;32866;50.160;14.768;2022-08-19T05:09:34;98733.88;;;20.30;100.00
46876;BME280;32866;50.160;14.768;2022-08-19T05:12:00;98714.72;;;20.20;100.00
46876;BME280;32866;50.160;14.768;2022-08-19T05:14:25;98721.16;;;20.34;100.00
46876;BME280;32866;50.160;14.768;2022-08-19T05:16:51;98732.06;;;20.57;100.00
46876;BME280;32866;50.160;14.768;2022-08-19T05:19:16;98715.72;;;20.48;100.00
46876;BME280;32866;50.160;14.768;2022-08-19T05:22:00;98747.56;;;20.77;100.00
46876;BME280;32866;50.160;14.768;2022-08-19T05:24:44;98754.34;;;20.82;100.00
46876;BME280;32866;50.160;14.768;2022-08-19T05:27:09;98752.22;;;20.88;100.00
46876;BME280;32866;50.160;14.768;2022-08-19T05:29:34;98759.00;;;20.73;100.00
46876;BME280;32866;50.160;14.768;2022-08-19T05:32:00;98780.31;;;20.90;100.00
46876;BME280;32866;50.160;14.768;2022-08-19T05:34:26;98770.28;;;20.81;100.00
46876;BME280;32866;50.160;14.768;2022-08-19T05:36:56;98785.28;;;20.97;100.00
46876;BME280;32866;50.160;14.768;2022-08-19T05:39:23;98782.50;;;20.97;100.00
46876;BME280;32866;50.160;14.768;2022-08-19T05:41:54;98786.72;;;21.04;100.00
46876;BME280;32866;50.160;14.768;2022-08-19T05:44:23;98785.38;;;21.10;100.00
46876;BME280;32866;50.160;14.768;2022-08-19T05:46:48;98780.53;;;20.92;100.00
46876;BME280;32866;50.160;14.768;2022-08-19T05:49:14;98809.84;;;21.18;100.00
46876;BME280;32866;50.160;14.768;2022-08-19T05:51:41;98816.25;;;21.31;100.00
46876;BME280;32866;50.160;14.768;2022-08-19T05:54:06;98780.84;;;21.07;100.00
46876;BME280;32866;50.160;14.768;2022-08-19T05:56:34;98815.81;;;21.27;100.00
46876;BME280;32866;50.160;14.768;2022-08-19T05:59:04;98819.81;;;21.32;100.00
46876;BME280;32866;50.160;14.768;2022-08-19T06:01:35;98834.94;;;21.37;100.00
46876;BME280;32866;50.160;14.768;2022-08-19T06:04:01;98841.16;;;21.48;100.00
46876;BME280;32866;50.160;14.768;2022-08-19T06:06:26;98841.00;;;21.60;100.00
46876;BME280;32866;50.160;14.768;2022-08-19T06:08:51;98847.34;;;21.60;100.00
46876;BME280;32866;50.160;14.768;2022-08-19T06:11:21;98854.56;;;21.69;100.00
46876;BME280;32866;50.160;14.768;2022-08-19T06:16:22;98871.59;;;21.65;100.00
46876;BME280;32866;50.160;14.768;2022-08-19T06:18:52;98849.13;;;21.58;100.00
46876;BME280;32866;50.160;14.768;2022-08-19T06:21:22;98873.16;;;21.99;100.00
46876;BME280;32866;50.160;14.768;2022-08-19T06:23:48;98844.59;;;21.93;100.00
46876;BME280;32866;50.160;14.768;2022-08-19T06:26:16;98880.88;;;22.25;100.00
46876;BME280;32866;50.160;14.768;2022-08-19T06:28:42;98865.81;;;22.15;100.00
46876;BME280;32866;50.160;14.768;2022-08-19T06:31:14;98886.88;;;22.48;98.46
46876;BME280;32866;50.160;14.768;2022-08-19T06:33:41;98874.53;;;22.57;98.37
46876;BME280;32866;50.160;14.768;2022-08-19T06:36:08;98880.06;;;22.76;99.17
46876;BME280;32866;50.160;14.768;2022-08-19T06:38:40;98869.66;;;22.90;95.43
46876;BME280;32866;50.160;14.768;2022-08-19T06:41:05;98861.25;;;22.76;95.13
46876;BME280;32866;50.160;14.768;2022-08-19T06:43:31;98893.06;;;23.00;94.73
46876;BME280;32866;50.160;14.768;2022-08-19T06:45:57;98895.22;;;22.94;94.28
46876;BME280;32866;50.160;14.768;2022-08-19T06:48:24;98866.09;;;22.76;94.55
46876;BME280;32866;50.160;14.768;2022-08-19T06:50:49;98882.63;;;22.87;95.18
46876;BME280;32866;50.160;14.768;2022-08-19T06:53:16;98898.38;;;23.17;96.36
46876;BME280;32866;50.160;14.768;2022-08-19T06:55:44;98873.00;;;23.28;92.63
46876;BME280;32866;50.160;14.768;2022-08-19T06:58:10;98913.09;;;23.31;91.87
46876;BME280;32866;50.160;14.768;2022-08-19T07:00:36;98916.41;;;23.56;90.44
46876;BME280;32866;50.160;14.768;2022-08-19T07:03:01;98919.63;;;23.60;90.78
46876;BME280;32866;50.160;14.768;2022-08-19T07:05:27;98903.59;;;23.61;91.07
46876;BME280;32866;50.160;14.768;2022-08-19T07:07:53;98917.75;;;23.76;89.81
46876;BME280;32866;50.160;14.768;2022-08-19T07:10:18;98886.72;;;23.66;90.58
46876;BME280;32866;50.160;14.768;2022-08-19T07:12:44;98900.56;;;23.72;88.76
46876;BME280;32866;50.160;14.768;2022-08-19T07:15:10;98902.41;;;23.56;88.14
46876;BME280;32866;50.160;14.768;2022-08-19T07:17:36;98924.03;;;23.69;88.59
46876;BME280;32866;50.160;14.768;2022-08-19T07:20:05;98919.19;;;23.69;88.26
46876;BME280;32866;50.160;14.768;2022-08-19T07:22:35;98899.16;;;23.79;88.75
46876;BME280;32866;50.160;14.768;2022-08-19T07:25:00;98882.72;;;24.10;86.67
46876;BME280;32866;50.160;14.768;2022-08-19T07:27:28;98904.66;;;24.19;84.36
46876;BME280;32866;50.160;14.768;2022-08-19T07:29:54;98866.97;;;23.99;85.20
46876;BME280;32866;50.160;14.768;2022-08-19T07:32:19;98891.94;;;23.97;85.71
46876;BME280;32866;50.160;14.768;2022-08-19T07:34:44;98879.22;;;24.30;87.82
46876;BME280;32866;50.160;14.768;2022-08-19T07:37:10;98898.03;;;24.93;84.63
46876;BME280;32866;50.160;14.768;2022-08-19T07:39:37;98884.41;;;24.68;82.83
46876;BME280;32866;50.160;14.768;2022-08-19T07:42:07;98885.84;;;24.40;82.88
46876;BME280;32866;50.160;14.768;2022-08-19T07:44:34;98882.84;;;24.38;84.28
46876;BME280;32866;50.160;14.768;2022-08-19T07:47:00;98887.81;;;24.32;84.07
46876;BME280;32866;50.160;14.768;2022-08-19T07:49:26;98865.69;;;24.63;82.98
46876;BME280;32866;50.160;14.768;2022-08-19T07:51:58;98843.97;;;25.13;80.67
46876;BME280;32866;50.160;14.768;2022-08-19T07:54:25;98839.66;;;25.49;79.90
46876;BME280;32866;50.160;14.768;2022-08-19T07:56:52;98835.28;;;25.77;77.09
46876;BME280;32866;50.160;14.768;2022-08-19T07:59:18;98841.88;;;25.95;77.30
46876;BME280;32866;50.160;14.768;2022-08-19T08:01:44;98813.28;;;26.04;79.30
46876;BME280;32866;50.160;14.768;2022-08-19T08:04:10;98816.47;;;26.46;80.99
46876;BME280;32866;50.160;14.768;2022-08-19T08:06:54;98820.03;;;26.70;77.80
46876;BME280;32866;50.160;14.768;2022-08-19T08:09:40;98811.22;;;26.58;78.70
46876;BME280;32866;50.160;14.768;2022-08-19T08:12:12;98798.50;;;26.26;78.57
46876;BME280;32866;50.160;14.768;2022-08-19T08:14:45;98783.47;;;26.62;75.38
46876;BME280;32866;50.160;14.768;2022-08-19T08:17:13;98747.22;;;26.18;78.33
46876;BME280;32866;50.160;14.768;2022-08-19T08:19:39;98752.66;;;26.32;79.50
46876;BME280;32866;50.160;14.768;2022-08-19T08:22:07;98748.63;;;26.81;76.75
46876;BME280;32866;50.160;14.768;2022-08-19T08:24:35;98764.22;;;26.67;78.80
46876;BME280;32866;50.160;14.768;2022-08-19T08:27:01;98790.44;;;26.61;74.04
46876;BME280;32866;50.160;14.768;2022-08-19T08:29:28;98819.66;;;26.43;80.37
46876;BME280;32866;50.160;14.768;2022-08-19T08:31:55;98820.41;;;26.20;80.05
46876;BME280;32866;50.160;14.768;2022-08-19T08:34:20;98858.22;;;26.42;79.81
46876;BME280;32866;50.160;14.768;2022-08-19T08:36:46;98867.19;;;26.41;77.00
46876;BME280;32866;50.160;14.768;2022-08-19T08:39:14;98876.88;;;26.09;77.94
46876;BME280;32866;50.160;14.768;2022-08-19T08:44:17;98893.22;;;25.30;79.81
46876;BME280;32866;50.160;14.768;2022-08-19T08:46:59;98895.78;;;24.91;82.32
46876;BME280;32866;50.160;14.768;2022-08-19T08:49:44;98885.44;;;24.57;85.26
46876;BME280;32866;50.160;14.768;2022-08-19T08:54:46;98902.63;;;24.40;85.81
46876;BME280;32866;50.160;14.768;2022-08-19T08:57:26;98893.06;;;24.36;83.74
46876;BME280;32866;50.160;14.768;2022-08-19T08:59:54;98886.66;;;24.49;82.86
46876;BME280;32866;50.160;14.768;2022-08-19T09:02:22;98861.13;;;24.10;86.92
46876;BME280;32866;50.160;14.768;2022-08-19T09:04:47;98861.09;;;24.31;84.96
46876;BME280;32866;50.160;14.768;2022-08-19T09:11:03;98887.25;;;24.13;89.19
46876;BME280;32866;50.160;14.768;2022-08-19T09:15:37;98897.34;;;24.16;89.37
46876;BME280;32866;50.160;14.768;2022-08-19T09:18:04;98896.06;;;24.38;87.76
46876;BME280;32866;50.160;14.768;2022-08-19T09:20:30;98895.13;;;24.56;85.96
46876;BME280;32866;50.160;14.768;2022-08-19T09:22:56;98890.84;;;24.55;84.63
46876;BME280;32866;50.160;14.768;2022-08-19T09:25:24;98895.69;;;24.55;88.79
46876;BME280;32866;50.160;14.768;2022-08-19T09:27:51;98898.28;;;24.74;90.74
46876;BME280;32866;50.160;14.768;2022-08-19T09:30:22;98900.97;;;24.45;85.69
46876;BME280;32866;50.160;14.768;2022-08-19T09:32:49;98893.59;;;24.34;87.98
46876;BME280;32866;50.160;14.768;2022-08-19T09:35:17;98866.63;;;24.44;89.45
46876;BME280;32866;50.160;14.768;2022-08-19T09:37:43;98882.69;;;24.44;87.15
46876;BME280;32866;50.160;14.768;2022-08-19T09:40:12;98896.22;;;24.74;88.65
46876;BME280;32866;50.160;14.768;2022-08-19T09:42:38;98870.03;;;24.30;86.81
46876;BME280;32866;50.160;14.768;2022-08-19T09:45:04;98893.16;;;24.43;86.39
46876;BME280;32866;50.160;14.768;2022-08-19T09:47:29;98898.88;;;25.09;89.18
46876;BME280;32866;50.160;14.768;2022-08-19T09:49:55;98893.44;;;25.76;84.73
46876;BME280;32866;50.160;14.768;2022-08-19T09:52:20;98889.84;;;25.68;82.71
46876;BME280;32866;50.160;14.768;2022-08-19T09:54:46;98891.69;;;25.58;83.51
46876;BME280;32866;50.160;14.768;2022-08-19T09:57:11;98887.75;;;26.20;79.92
46876;BME280;32866;50.160;14.768;2022-08-19T09:59:38;98903.50;;;26.23;77.86
46876;BME280;32866;50.160;14.768;2022-08-19T10:02:04;98874.50;;;25.69;80.63
46876;BME280;32866;50.160;14.768;2022-08-19T10:04:29;98914.13;;;26.02;82.13
46876;BME280;32866;50.160;14.768;2022-08-19T10:07:30;98912.66;;;25.72;82.98
46876;BME280;32866;50.160;14.768;2022-08-19T10:09:55;98886.91;;;25.08;85.15
46876;BME280;32866;50.160;14.768;2022-08-19T10:12:21;98910.59;;;25.28;85.90
46876;BME280;32866;50.160;14.768;2022-08-19T10:14:47;98908.06;;;24.88;83.03
46876;BME280;32866;50.160;14.768;2022-08-19T10:17:13;98875.97;;;24.89;86.90
46876;BME280;32866;50.160;14.768;2022-08-19T10:19:39;98902.88;;;25.21;84.63
46876;BME280;32866;50.160;14.768;2022-08-19T10:22:06;98910.75;;;24.94;87.10
46876;BME280;32866;50.160;14.768;2022-08-19T10:24:33;98903.06;;;25.23;88.79
46876;BME280;32866;50.160;14.768;2022-08-19T10:27:00;98898.53;;;25.12;84.90
46876;BME280;32866;50.160;14.768;2022-08-19T10:29:27;98918.69;;;24.82;87.11
46876;BME280;32866;50.160;14.768;2022-08-19T10:31:53;98891.69;;;24.92;85.33
46876;BME280;32866;50.160;14.768;2022-08-19T10:34:18;98898.47;;;25.05;84.67
46876;BME280;32866;50.160;14.768;2022-08-19T10:36:44;98908.53;;;25.00;83.12
46876;BME280;32866;50.160;14.768;2022-08-19T10:39:10;98921.75;;;25.21;83.03
46876;BME280;32866;50.160;14.768;2022-08-19T10:41:39;98915.53;;;25.43;85.73
46876;BME280;32866;50.160;14.768;2022-08-19T10:44:07;98915.03;;;25.97;85.47
46876;BME280;32866;50.160;14.768;2022-08-19T10:46:36;98907.25;;;26.49;80.14
46876;BME280;32866;50.160;14.768;2022-08-19T10:49:04;98906.75;;;26.74;78.63
46876;BME280;32866;50.160;14.768;2022-08-19T10:51:31;98907.41;;;27.20;76.43
46876;BME280;32866;50.160;14.768;2022-08-19T10:54:16;98916.81;;;27.08;78.40
46876;BME280;32866;50.160;14.768;2022-08-19T10:56:42;98912.72;;;26.78;76.09
46876;BME280;32866;50.160;14.768;2022-08-19T10:59:24;98909.50;;;27.20;74.29
46876;BME280;32866;50.160;14.768;2022-08-19T11:01:53;98910.19;;;27.28;76.24
46876;BME280;32866;50.160;14.768;2022-08-19T11:04:19;98912.81;;;27.42;71.79
46876;BME280;32866;50.160;14.768;2022-08-19T11:06:46;98911.25;;;27.64;68.54
46876;BME280;32866;50.160;14.768;2022-08-19T11:09:16;98903.97;;;27.53;73.00
46876;BME280;32866;50.160;14.768;2022-08-19T11:11:42;98907.06;;;27.01;75.18
46876;BME280;32866;50.160;14.768;2022-08-19T11:14:09;98910.66;;;26.78;77.43
46876;BME280;32866;50.160;14.768;2022-08-19T11:16:36;98881.63;;;26.60;80.20
46876;BME280;32866;50.160;14.768;2022-08-19T11:19:04;98887.63;;;26.64;80.07
46876;BME280;32866;50.160;14.768;2022-08-19T11:21:42;98886.66;;;26.39;75.44
46876;BME280;32866;50.160;14.768;2022-08-19T11:24:17;98897.91;;;26.31;77.50
46876;BME280;32866;50.160;14.768;2022-08-19T11:26:44;98896.34;;;26.07;76.79
46876;BME280;32866;50.160;14.768;2022-08-19T11:29:11;98893.28;;;25.89;75.59
46876;BME280;32866;50.160;14.768;2022-08-19T11:31:41;98886.97;;;25.97;77.77
46876;BME280;32866;50.160;14.768;2022-08-19T11:34:10;98883.81;;;26.08;75.55
46876;BME280;32866;50.160;14.768;2022-08-19T11:36:39;98886.28;;;26.35;77.94
46876;BME280;32866;50.160;14.768;2022-08-19T11:39:06;98866.06;;;26.28;75.22
46876;BME280;32866;50.160;14.768;2022-08-19T11:41:32;98890.97;;;26.24;74.09
46876;BME280;32866;50.160;14.768;2022-08-19T11:43:58;98874.63;;;26.00;73.81
46876;BME280;32866;50.160;14.768;2022-08-19T11:46:24;98896.16;;;26.05;76.25
46876;BME280;32866;50.160;14.768;2022-08-19T11:48:50;98894.41;;;25.94;76.38
46876;BME280;32866;50.160;14.768;2022-08-19T11:51:21;98897.00;;;26.75;72.32
46876;BME280;32866;50.160;14.768;2022-08-19T11:53:47;98890.59;;;26.59;70.51
46876;BME280;32866;50.160;14.768;2022-08-19T11:56:13;98859.34;;;26.47;70.96
46876;BME280;32866;50.160;14.768;2022-08-19T11:58:38;98875.66;;;26.72;72.81
46876;BME280;32866;50.160;14.768;2022-08-19T12:01:16;98876.53;;;26.90;73.49
46876;BME280;32866;50.160;14.768;2022-08-19T12:03:42;98884.81;;;26.64;71.35
46876;BME280;32866;50.160;14.768;2022-08-19T12:06:11;98877.69;;;26.40;74.01
46876;BME280;32866;50.160;14.768;2022-08-19T12:08:39;98884.78;;;26.49;74.03
46876;BME280;32866;50.160;14.768;2022-08-19T12:11:04;98883.97;;;25.95;75.88
46876;BME280;32866;50.160;14.768;2022-08-19T12:13:33;98884.44;;;25.70;78.09
46876;BME280;32866;50.160;14.768;2022-08-19T12:15:59;98858.81;;;25.73;83.08
46876;BME280;32866;50.160;14.768;2022-08-19T12:18:24;98873.03;;;25.68;81.27
46876;BME280;32866;50.160;14.768;2022-08-19T12:20:51;98863.00;;;25.96;80.08
46876;BME280;32866;50.160;14.768;2022-08-19T12:23:17;98836.38;;;25.66;79.15
46876;BME280;32866;50.160;14.768;2022-08-19T12:25:45;98859.13;;;25.54;78.87
46876;BME280;32866;50.160;14.768;2022-08-19T12:28:15;98855.88;;;25.79;80.42
46876;BME280;32866;50.160;14.768;2022-08-19T12:33:09;98851.38;;;25.84;84.31
46876;BME280;32866;50.160;14.768;2022-08-19T12:35:34;98847.63;;;25.81;80.95
46876;BME280;32866;50.160;14.768;2022-08-19T12:38:00;98821.44;;;25.71;83.84
46876;BME280;32866;50.160;14.768;2022-08-19T12:40:26;98855.59;;;25.62;78.75
46876;BME280;32866;50.160;14.768;2022-08-19T12:42:53;98851.66;;;26.32;77.06
46876;BME280;32866;50.160;14.768;2022-08-19T12:45:19;98819.09;;;26.21;79.67
46876;BME280;32866;50.160;14.768;2022-08-19T12:47:44;98836.25;;;25.95;78.32
46876;BME280;32866;50.160;14.768;2022-08-19T12:50:11;98855.03;;;26.31;78.75
46876;BME280;32866;50.160;14.768;2022-08-19T12:52:36;98850.72;;;26.83;74.23
46876;BME280;32866;50.160;14.768;2022-08-19T12:55:03;98857.25;;;26.47;75.79
46876;BME280;32866;50.160;14.768;2022-08-19T12:57:29;98850.34;;;26.79;77.27
46876;BME280;32866;50.160;14.768;2022-08-19T12:59:59;98832.19;;;26.42;77.38
46876;BME280;32866;50.160;14.768;2022-08-19T13:02:24;98845.50;;;26.64;78.14